METAR AND TAF INFORMATION
METAR FOR ULAA
ADDS - METARS form results

(1055 UTC 19 August 2019)
Data provider http://aviationweather.gov/metar/data/
 
METAR text: ULAA 191030Z 13005G10MPS 090V160 9999 SCT030 21/12 Q1015 R08/CLRD68 NOSIG RMK QFE760/1014
Conditions at: ULAA (ARHANGELSK , RU) observed 1030 UTC 19 August 2019
Temperature: 21.0°C (70°F)
Dewpoint: 12.0°C (54°F) [RH = 56%]
Pressure (altimeter): 29.97 inches Hg (1015.0 mb)
Winds: from the SE (130 degrees) at 12 MPH (10 knots; 5.1 m/s)
gusting to 22 MPH (19 knots; 9.8 m/s)
Visibility: 6 or more miles (10+ km)
Ceiling: at least 12,000 feet AGL
Clouds: scattered clouds at 3000 feet AGL
Weather: no significant weather observed at this time

METAR text: ULAA 191000Z 14006MPS 100V210 9999 SCT030 22/13 Q1015 R08/CLRD68 NOSIG RMK QFE760/1014
Conditions at: ULAA (ARHANGELSK , RU) observed 1000 UTC 19 August 2019
Temperature: 22.0°C (72°F)
Dewpoint: 13.0°C (55°F) [RH = 57%]
Pressure (altimeter): 29.97 inches Hg (1015.0 mb)
Winds: from the SE (140 degrees) at 14 MPH (12 knots; 6.2 m/s)
Visibility: 6 or more miles (10+ km)
Ceiling: at least 12,000 feet AGL
Clouds: scattered clouds at 3000 feet AGL
Weather: no significant weather observed at this time

Forecast for: ULAA (ARHANGELSK , RU)
Text: TAF ULAA 190800Z 1909/2009 16005MPS 9999 BKN015
Forecast period: 0900 UTC 19 August 2019 to 0900 UTC 20 August 2019
Forecast type: FROM: standard forecast or significant change
Winds: from the SSE (160 degrees) at 12 MPH (10 knots; 5.1 m/s)
Visibility: 6 or more miles 10+ km)
Ceiling: 1500 feet AGL
Clouds: broken clouds at 1500 feet AGL
Weather: no significant weather forecast for this period
Text: TEMPO 1909/1912 14006G14MPS 5000 -SHRA BKN011CB
Forecast period: 0900 to 1200 UTC 19 August 2019
Forecast type: TEMPORARY: The following changes expected for less than half the time period
Winds: from the SE (140 degrees) at 14 MPH (12 knots; 6.2 m/s)
gusting to 31 MPH (27 knots; 13.9 m/s)
Visibility: 3 miles (5 km)
Ceiling: 1100 feet AGL
Clouds: broken clouds at 1100 feet AGL
Weather: -SHRA  (light rain showers)
Text: TEMPO 1912/2009 18004G14MPS 3100 -SHRA BKN012CB
Forecast period: 1200 UTC 19 August 2019 to 0900 UTC 20 August 2019
Forecast type: TEMPORARY: The following changes expected for less than half the time period
Winds: from the S (180 degrees) at 9 MPH (8 knots; 4.1 m/s)
gusting to 31 MPH (27 knots; 13.9 m/s)
Visibility: 1.93 miles (3.11 km)
Ceiling: 1200 feet AGL
Clouds: broken clouds at 1200 feet AGL
Weather: -SHRA  (light rain showers)

 AIRPORT MAP

 RUNWAY INFORMATION

 AIRPORT FREQUENCIES
Type APP Name ARKHANGELS Frequency 122 MHZ
Type ATIS Name ARKHANGELS Frequency 126.675 MHZ
Type TWR Name ARKHANGELS Frequency 121.8 MHZ

 AIRPORT NEAR NAVIGATION AIDS
Type NDB Name Arkhangelsk Frequency 690 KHZ
Type NDB Name Arkhangelsk Frequency 690 KHZ



2018 Air Astana Virtual Airline